Time;durP1;ratioP1;P1;durP2;ratioP2;P2;SDS_P1;SDS_P2;PMS_P1;PMS_P2;Temp;Humidity;BMP_temperature;BMP_pressure;BME280_temperature;BME280_humidity;BME280_pressure;Samples;Min_cycle;Max_cycle;Signal;HPM_P1;HPM_P2
2022/01/18 06:48:35;;;;;;;13.18;4.30;;;;;;;;;;10564624;27;20473;-83
2022/01/18 06:53:43;;;;;;;7.15;2.65;;;;;;;;;;10569776;28;20036;-82
2022/01/18 06:58:45;;;;;;;5.93;2.30;;;;;;;;;;10568765;28;20025;-82
2022/01/18 07:03:47;;;;;;;;;;;;;;;;;;10569164;28;20086;-82
2022/01/18 07:08:55;;;;;;;8.02;2.97;;;;;;;;;;10568637;28;19900;-82
2022/01/18 07:13:56;;;;;;;6.78;2.80;;;;;;;;;;10567001;28;20100;-82
2022/01/18 07:18:57;;;;;;;;;;;;;;;;;;10567225;28;20028;-82
2022/01/18 07:29:29;;;;;;;13.95;5.88;;;;;;;;;;10571436;28;20028;-83
2022/01/18 07:34:38;;;;;;;6.38;2.60;;;;;;;;;;10566561;28;20054;-82
2022/01/18 07:39:39;;;;;;;9.88;4.53;;;;;;;;;;10567181;28;20028;-82
2022/01/18 07:44:42;;;;;;;;;;;;;;;;;;10565724;28;20020;-82
2022/01/18 07:49:43;;;;;;;15.35;6.22;;;;;;;;;;10565585;28;19975;-82
2022/01/18 07:54:47;;;;;;;;;;;;;;;;;;10564576;28;20024;-82
2022/01/18 07:59:48;;;;;;;13.80;7.20;;;;;;;;;;10536158;28;19904;-83
2022/01/18 08:04:49;;;;;;;;;;;;;;;;;;10536694;28;20033;-81
2022/01/18 08:09:50;;;;;;;10.98;3.50;;;;;;;;;;10535306;28;19957;-82
2022/01/18 08:14:54;;;;;;;;;;;;;;;;;;10527165;28;20113;-82
2022/01/18 08:19:55;;;;;;;11.18;5.05;;;;;;;;;;10527509;28;19904;-82
2022/01/18 08:24:55;;;;;;;;;;;;;;;;;;10536156;28;20441;-82
2022/01/18 08:29:56;;;;;;;11.60;5.65;;;;;;;;;;10533105;28;19970;-80
2022/01/18 08:34:57;;;;;;;;;;;;;;;;;;10531301;28;20033;-83
2022/01/18 08:39:58;;;;;;;10.48;5.38;;;;;;;;;;10522624;28;19905;-84
2022/01/18 08:45:01;;;;;;;12.20;6.05;;;;;;;;;;10520654;28;20116;-86
2022/01/18 08:50:03;;;;;;;11.90;5.80;;;;;;;;;;10525152;28;20032;-84
2022/01/18 08:55:05;;;;;;;12.40;6.32;;;;;;;;;;10519944;28;20028;-83
2022/01/18 09:00:08;;;;;;;13.82;6.97;;;;;;;;;;10519454;28;20421;-83
2022/01/18 09:05:09;;;;;;;13.48;7.30;;;;;;;;;;10525593;28;20032;-84
2022/01/18 09:10:13;;;;;;;14.27;7.25;;;;;;;;;;10537510;28;20028;-86
2022/01/18 09:15:18;;;;;;;12.52;5.75;;;;;;;;;;10527867;28;20028;-86
2022/01/18 09:20:20;;;;;;;13.18;6.60;;;;;;;;;;10523697;28;20016;-85
2022/01/18 09:25:24;;;;;;;12.88;6.10;;;;;;;;;;10511677;28;20037;-85
2022/01/18 09:30:28;;;;;;;9.65;4.88;;;;;;;;;;10508050;28;20032;-85
2022/01/18 09:35:29;;;;;;;9.82;4.97;;;;;;;;;;10510130;28;20047;-85
2022/01/18 09:40:39;;;;;;;10.82;4.88;;;;;;;;;;10518111;28;20021;-85
2022/01/18 09:51:14;;;;;;;9.27;5.13;;;;;;;;;;10513864;28;20475;-84
2022/01/18 09:56:16;;;;;;;8.93;4.57;;;;;;;;;;10534140;28;20165;-84
2022/01/18 10:01:19;;;;;;;8.70;4.55;;;;;;;;;;10511405;28;20024;-84
2022/01/18 10:06:21;;;;;;;10.90;6.82;;;;;;;;;;10509170;28;20085;-84
2022/01/18 10:11:22;;;;;;;6.95;3.95;;;;;;;;;;10511652;28;20114;-84
2022/01/18 10:16:25;;;;;;;9.10;4.65;;;;;;;;;;10512361;28;20614;-84
2022/01/18 10:21:33;;;;;;;9.48;4.50;;;;;;;;;;10494148;28;20032;-85
2022/01/18 10:26:44;;;;;;;9.43;3.83;;;;;;;;;;10515115;28;20429;-84
2022/01/18 10:36:58;;;;;;;7.53;3.70;;;;;;;;;;10517483;28;20059;-83
2022/01/18 10:42:14;;;;;;;8.35;3.75;;;;;;;;;;10517827;28;20041;-84
2022/01/18 10:47:21;;;;;;;9.40;4.50;;;;;;;;;;10513830;28;20100;-83
2022/01/18 10:52:24;;;;;;;10.55;3.83;;;;;;;;;;10506688;28;20036;-83
2022/01/18 10:57:39;;;;;;;8.48;4.07;;;;;;;;;;10504829;28;20050;-84
2022/01/18 11:02:50;;;;;;;8.93;4.15;;;;;;;;;;10508635;28;20036;-84
2022/01/18 11:07:56;;;;;;;8.35;3.75;;;;;;;;;;10527270;28;20025;-84
2022/01/18 11:13:23;;;;;;;9.98;4.47;;;;;;;;;;10544981;28;20021;-85
2022/01/18 11:18:36;;;;;;;7.97;4.10;;;;;;;;;;10544948;28;20043;-85
2022/01/18 11:24:05;;;;;;;6.17;3.20;;;;;;;;;;10524861;28;20097;-85
2022/01/18 11:29:07;;;;;;;11.55;5.15;;;;;;;;;;10541500;28;20041;-84
2022/01/18 11:34:10;;;;;;;6.20;3.65;;;;;;;;;;10541416;28;20104;-85
2022/01/18 11:39:12;;;;;;;6.82;3.47;;;;;;;;;;10519853;28;20032;-85
2022/01/18 11:44:28;;;;;;;7.20;3.60;;;;;;;;;;10534908;28;20032;-83
2022/01/18 11:49:34;;;;;;;6.22;3.17;;;;;;;;;;10533215;28;20041;-85
2022/01/18 11:54:58;;;;;;;9.25;4.03;;;;;;;;;;10528595;28;20100;-85
2022/01/18 12:00:32;;;;;;;7.00;3.42;;;;;;;;;;10530660;28;20043;-85
2022/01/18 12:05:43;;;;;;;8.25;3.85;;;;;;;;;;10533207;28;20043;-85
2022/01/18 12:10:53;;;;;;;8.37;4.27;;;;;;;;;;10531759;28;20058;-85
2022/01/18 12:15:56;;;;;;;6.97;3.43;;;;;;;;;;10529577;28;20096;-86
2022/01/18 12:21:18;;;;;;;9.75;4.38;;;;;;;;;;10529413;28;20025;-85
2022/01/18 12:37:26;;;;;;;7.22;3.20;;;;;;;;;;10524063;28;20032;-86
2022/01/18 12:47:49;;;;;;;7.60;3.30;;;;;;;;;;10523861;28;20037;-84
2022/01/18 12:52:50;;;;;;;9.05;3.72;;;;;;;;;;10518711;28;20043;-86
2022/01/18 12:58:11;;;;;;;7.03;3.47;;;;;;;;;;10523335;28;20028;-85
2022/01/18 13:03:17;;;;;;;8.15;3.50;;;;;;;;;;10521171;28;20032;-86
2022/01/18 13:08:19;;;;;;;8.93;4.05;;;;;;;;;;10520398;28;20024;-86
2022/01/18 13:13:22;;;;;;;8.20;3.38;;;;;;;;;;10523530;28;20540;-85
2022/01/18 13:23:53;;;;;;;8.65;3.88;;;;;;;;;;10522843;28;20028;-87
2022/01/18 13:28:54;;;;;;;7.25;3.20;;;;;;;;;;10535453;28;20036;-86
2022/01/18 13:33:57;;;;;;;5.47;2.47;;;;;;;;;;10518372;28;20024;-85
2022/01/18 13:38:58;;;;;;;7.30;3.25;;;;;;;;;;10515385;28;20028;-86
2022/01/18 13:43:59;;;;;;;8.25;3.30;;;;;;;;;;10523572;28;20028;-84
2022/01/18 13:49:19;;;;;;;9.20;4.88;;;;;;;;;;10545757;28;20119;-86
2022/01/18 13:54:21;;;;;;;8.03;3.60;;;;;;;;;;10519700;28;20036;-84
2022/01/18 13:59:38;;;;;;;6.53;2.90;;;;;;;;;;10525268;28;20056;-85
2022/01/18 14:04:43;;;;;;;;;;;;;;;;;;10529192;28;20092;-85
2022/01/18 14:10:02;;;;;;;8.02;3.17;;;;;;;;;;10526285;28;20382;-85
2022/01/18 14:15:04;;;;;;;6.85;2.67;;;;;;;;;;10521928;28;20513;-84
2022/01/18 14:20:08;;;;;;;8.02;2.80;;;;;;;;;;10519817;28;20028;-87
2022/01/18 14:25:12;;;;;;;6.07;2.75;;;;;;;;;;10517132;28;20029;-87
2022/01/18 14:30:21;;;;;;;5.00;2.25;;;;;;;;;;10518110;28;20124;-86
2022/01/18 14:35:23;;;;;;;5.32;2.53;;;;;;;;;;10506160;22;20072;-80
2022/01/18 14:40:37;;;;;;;7.90;3.53;;;;;;;;;;10385305;28;20089;-82
2022/01/18 14:45:52;;;;;;;5.85;2.50;;;;;;;;;;10385547;28;20033;-80
2022/01/18 14:50:54;;;;;;;6.95;2.50;;;;;;;;;;10386198;28;20574;-79
2022/01/18 14:55:55;;;;;;;6.38;2.70;;;;;;;;;;10395772;28;20117;-81
2022/01/18 15:00:58;;;;;;;7.45;4.15;;;;;;;;;;10393482;28;20025;-80
2022/01/18 15:05:59;;;;;;;6.70;2.75;;;;;;;;;;10390860;28;20022;-81
2022/01/18 15:11:00;;;;;;;9.38;2.90;;;;;;;;;;10394147;28;20026;-80
2022/01/18 15:16:01;;;;;;;7.15;2.78;;;;;;;;;;10392478;28;20093;-80
2022/01/18 15:21:02;;;;;;;6.18;2.50;;;;;;;;;;10396077;28;20038;-80
2022/01/18 15:26:03;;;;;;;6.07;2.55;;;;;;;;;;10390763;28;20129;-81
2022/01/18 15:31:04;;;;;;;6.85;3.28;;;;;;;;;;10389089;28;20018;-80
2022/01/18 15:36:05;;;;;;;6.15;2.42;;;;;;;;;;10390709;28;20442;-79
2022/01/18 15:41:06;;;;;;;5.53;2.78;;;;;;;;;;10408914;28;20555;-80
2022/01/18 15:46:08;;;;;;;7.82;2.95;;;;;;;;;;10409479;28;20518;-79
2022/01/18 15:51:12;;;;;;;9.77;4.55;;;;;;;;;;10396205;28;20041;-81
2022/01/18 15:56:16;;;;;;;6.05;3.10;;;;;;;;;;10393252;28;20041;-80
2022/01/18 16:01:17;;;;;;;7.80;3.78;;;;;;;;;;10410697;28;20034;-79
2022/01/18 16:06:18;;;;;;;6.18;2.95;;;;;;;;;;10408103;28;20030;-79
2022/01/18 16:11:22;;;;;;;7.30;3.40;;;;;;;;;;10402393;28;20026;-80
2022/01/18 16:16:24;;;;;;;5.72;3.33;;;;;;;;;;10398335;28;20022;-78
2022/01/18 16:21:25;;;;;;;8.80;3.65;;;;;;;;;;10406491;28;20113;-79
2022/01/18 16:26:26;;;;;;;10.85;3.40;;;;;;;;;;10400860;28;20026;-79
2022/01/18 16:31:27;;;;;;;10.80;4.80;;;;;;;;;;10394381;28;20034;-78
2022/01/18 16:36:29;;;;;;;7.63;3.95;;;;;;;;;;10405133;28;20506;-78
2022/01/18 16:41:52;;;;;;;8.73;3.35;;;;;;;;;;10399506;28;20030;-79
2022/01/18 16:47:20;;;;;;;8.18;3.65;;;;;;;;;;10398116;28;20410;-81
2022/01/18 16:52:32;;;;;;;11.07;5.18;;;;;;;;;;10393214;28;20462;-80
2022/01/18 16:57:33;;;;;;;9.25;4.13;;;;;;;;;;10389596;28;20033;-80
2022/01/18 17:02:35;;;;;;;8.82;4.22;;;;;;;;;;10397824;28;20030;-79
2022/01/18 17:07:37;;;;;;;6.47;3.78;;;;;;;;;;10405218;28;20048;-80
2022/01/18 17:13:00;;;;;;;7.82;4.07;;;;;;;;;;10398258;28;20034;-79
2022/01/18 17:18:33;;;;;;;8.50;4.70;;;;;;;;;;10400507;28;20472;-90
